Terminal Aerodrome Forecast
Issued by NWS

Home | Current Version | Previous Version | Text Only | Print | Product List | Glossary On
Versions: 1 2 3 4 5 6 7 8 9 10 11 12
000
FTUS44 KEPZ 290600 RRA
TAFLRU
TAF
KLRU 290602Z 2906/3006 VRB04KT P6SM FEW150 SCT250
     FM290900 36004KT P6SM SCT150 BKN250
     FM291700 09011KT P6SM SCT050 OVC200
     FM292100 10012KT P6SM VCSH BKN050 OVC100
     FM300300 11011KT P6SM -SHRA SCT015 BKN030=

USA.gov is the U.S. government's official web portal to all federal, state and local government web resources and services.